Hutchinson, KS

2:07 AM CDT on September 03, 2014 (GMT -0500)
KKSHUTCH9 | Change Station
CLOSE
Current Station
Personal Weather Station
Location: Hutchinson, KS
Elevation: 1549 ft
Nearby Weather Stations

Elev 1549 ft 38.08 °N, 97.92 °W | Updated 5 seconds ago

Rain
Rain
72.7 °F
Feels Like 72.7 °F
N
5.4
Wind Variable Wind from SE
Gusts 7.6 mph

Today
High -- | Low -- °F
--% Chance of Precip.
Yesterday
High -- | Low -- °F
Precip. -- in
7:03 AM 7:58 PM
First Quarter, 59% visible
Pressure 29.85 in
Visibility 10.0 miles
Clouds Clear
Dew Point 72 °F
Humidity 99%
Rainfall 0.00 in
Snow Depth Not available.
UV 0 out of 12
Pollen 10.30 out of 12
Air Quality Not available.
Flu Activity Not available.
METAR KHUT 030652Z AUTO 13010KT 10SM CLR 23/21 A2991 RMK AO2 SLP106 T02280206

More Conditions Fewer Conditions

Pressure 29.85 in
Visibility 10.0 miles
Clouds Clear
Dew Point 72 °F
Humidity 99%
Rainfall 0.00 in
Snow Depth Not available.
UV 0 out of 12
Pollen 10.30 out of 12
Air Quality Not available.
Flu Activity Not available.
METAR KHUT 030652Z AUTO 13010KT 10SM CLR 23/21 A2991 RMK AO2 SLP106 T02280206

More Conditions Fewer Conditions

10-Day Weather Forecast

Almanac

Astronomy

Sep. 03, 2014 Rise Set
Actual Time 7:03 AM CDT 7:58 PM CDT
Civil Twilight 6:36 AM CDT 8:24 PM CDT
Nautical Twilight 6:04 AM CDT 8:56 PM CDT
Astronomical Twilight 5:31 AM CDT 9:29 PM CDT
Moon 3:38 PM CDT 1:01 AM CDT
Length of Visible Light 13h 48m
Length of Day
12h 54m
Tomorrow will be 2m 21s shorter.
First Quarter, 59% of the Moon is Illuminated
Today
First Quarter
Sep 8
Full
Sep 15
Last Quarter
Sep 24
New
Oct 1
First Quarter

Today's Extremes

State Highs State Lows

Community

WunderPhotos

Upload Photos

1,749,888 photos uploaded!

Nearby

Snow Depth

Station Depth Elevation
No new snow has been reported.

Earthquake Activity

City Distance Mag. Time & Date
Helena, Oklahoma 110 miles 3.2 3:05 AM CDT
2014-09-02
Medford, Oklahoma 93 miles 3.3 11:58 PM CDT
2014-09-01
Perry, Oklahoma 131 miles 3.1 6:46 AM CDT
2014-09-01
Enid, Oklahoma 100 miles 3.4 11:57 AM CDT
2014-08-31
Minimum magnitude displayed is 2.5.

Coastal Water Temperatures

Place Temperature
No Stations Reporting

Nearby Weather Stations